Time;durP1;ratioP1;P1;durP2;ratioP2;P2;SDS_P1;SDS_P2;PMS_P1;PMS_P2;Temp;Humidity;BMP_temperature;BMP_pressure;BME280_temperature;BME280_humidity;BME280_pressure;Samples;Min_cycle;Max_cycle;Signal;HPM_P1;HPM_P2
2022/10/26 00:01:04;;;;;;;13.15;5.53;;;12.80;99.90;;;;;;4950484;29;20036;-91
2022/10/26 00:03:29;;;;;;;17.10;4.18;;;12.80;99.90;;;;;;4934459;29;20405;-93
2022/10/26 00:06:02;;;;;;;11.68;4.10;;;12.80;99.90;;;;;;4950277;29;20031;-92
2022/10/26 00:08:28;;;;;;;14.00;3.67;;;12.80;99.90;;;;;;4966567;28;20033;-91
2022/10/26 00:10:56;;;;;;;8.75;3.25;;;12.80;99.90;;;;;;4953360;29;20122;-92
2022/10/26 00:13:22;;;;;;;16.30;3.75;;;12.80;99.90;;;;;;4953371;29;20122;-92
2022/10/26 00:15:49;;;;;;;12.15;3.92;;;12.80;99.90;;;;;;4953233;29;20131;-91
2022/10/26 00:18:15;;;;;;;9.20;3.75;;;12.80;99.90;;;;;;4953295;29;20043;-93
2022/10/26 00:20:44;;;;;;;13.02;3.92;;;12.70;99.90;;;;;;4953537;29;20085;-91
2022/10/26 00:23:10;;;;;;;14.82;4.93;;;12.70;99.90;;;;;;4938314;29;20054;-94
2022/10/26 00:25:35;;;;;;;12.60;3.92;;;12.70;99.90;;;;;;4954168;29;20493;-94
2022/10/26 00:28:04;;;;;;;10.40;3.50;;;12.70;99.90;;;;;;4954306;29;20050;-95
2022/10/26 00:30:30;;;;;;;17.88;4.65;;;12.70;99.90;;;;;;4938631;29;20061;-92
2022/10/26 00:32:55;;;;;;;16.67;5.05;;;12.70;99.90;;;;;;4954150;29;20043;-93
2022/10/26 00:35:21;;;;;;;17.00;4.28;;;12.70;99.90;;;;;;4953782;29;20082;-93
2022/10/26 00:37:47;;;;;;;15.75;4.53;;;12.70;99.90;;;;;;4954181;29;20091;-92
2022/10/26 00:40:12;;;;;;;25.98;5.70;;;12.70;99.90;;;;;;4954290;29;20487;-94
2022/10/26 00:42:41;;;;;;;12.38;4.70;;;12.70;99.90;;;;;;4955560;28;20496;-93
2022/10/26 00:45:26;;;;;;;14.85;4.30;;;12.70;99.90;;;;;;4957416;28;20019;-92
2022/10/26 00:48:06;;;;;;;16.60;5.10;;;12.70;99.90;;;;;;4958870;29;20055;-94
2022/10/26 00:50:47;;;;;;;;;;;12.70;99.90;;;;;;4960610;28;20490;-92
2022/10/26 00:53:24;;;;;;;10.90;4.50;;;12.70;99.90;;;;;;4959080;29;19917;-93
2022/10/26 00:56:13;;;;;;;12.00;4.10;;;12.70;99.90;;;;;;4958676;29;20035;-92
2022/10/26 00:58:44;;;;;;;15.25;4.57;;;12.70;99.90;;;;;;4960545;28;20055;-93
2022/10/26 01:01:30;;;;;;;;;;;12.70;99.90;;;;;;4967593;29;20034;-93
2022/10/26 01:03:58;;;;;;;11.32;4.20;;;12.70;99.90;;;;;;4980202;29;19894;-92
2022/10/26 01:06:24;;;;;;;14.88;4.38;;;12.70;99.90;;;;;;4962076;29;20030;-92
2022/10/26 01:08:51;;;;;;;14.43;4.43;;;12.70;99.90;;;;;;4944944;29;20035;-91
2022/10/26 01:11:19;;;;;;;13.10;3.78;;;12.70;99.90;;;;;;4959041;29;20023;-93
2022/10/26 01:13:58;;;;;;;13.35;4.43;;;12.80;99.90;;;;;;4958315;29;20031;-93
2022/10/26 01:16:46;;;;;;;22.67;4.53;;;12.80;99.90;;;;;;4960778;29;20043;-92
2022/10/26 01:19:50;;;;;;;16.92;4.50;;;12.80;99.90;;;;;;4959845;29;20126;-93
2022/10/26 01:22:44;;;;;;;12.80;4.07;;;12.80;99.90;;;;;;4955213;29;20047;-91
2022/10/26 01:25:19;;;;;;;13.52;4.28;;;12.80;99.90;;;;;;4939331;29;20040;-92
2022/10/26 01:27:50;;;;;;;12.57;4.03;;;12.80;99.90;;;;;;4938695;29;20474;-92
2022/10/26 01:30:38;;;;;;;10.48;4.05;;;12.80;99.90;;;;;;4936873;29;20074;-93
2022/10/26 01:33:52;;;;;;;15.10;4.38;;;12.90;99.90;;;;;;4881387;29;20064;-93
2022/10/26 01:36:38;;;;;;;11.80;3.65;;;12.90;99.90;;;;;;4867862;29;20033;-93
2022/10/26 01:39:15;;;;;;;10.90;3.50;;;12.90;99.90;;;;;;4862970;29;20046;-95
2022/10/26 01:41:48;;;;;;;12.07;4.38;;;12.90;99.90;;;;;;4862596;29;20038;-92
2022/10/26 01:44:40;;;;;;;11.93;4.22;;;12.90;99.90;;;;;;4862204;29;20038;-94
2022/10/26 01:47:08;;;;;;;13.13;4.15;;;12.90;99.90;;;;;;4862821;29;20100;-93
2022/10/26 01:50:01;;;;;;;10.30;3.72;;;13.00;99.90;;;;;;4862139;29;20086;-94
2022/10/26 01:53:11;;;;;;;7.97;3.63;;;13.00;99.90;;;;;;4863540;29;20132;-93
2022/10/26 01:56:01;;;;;;;14.07;3.80;;;13.00;99.90;;;;;;4862035;29;20026;-96
2022/10/26 01:58:52;;;;;;;11.52;3.67;;;13.00;99.90;;;;;;4862996;29;20140;-93
2022/10/26 02:01:51;;;;;;;14.68;3.47;;;13.00;99.90;;;;;;4862787;29;20456;-94
2022/10/26 02:05:06;;;;;;;10.98;3.95;;;13.10;99.90;;;;;;4863519;29;20037;-92
2022/10/26 02:08:23;;;;;;;12.93;4.15;;;13.10;99.90;;;;;;4826886;29;20039;-91
2022/10/26 02:11:30;;;;;;;13.85;4.15;;;13.20;99.90;;;;;;4843329;29;20138;-94
2022/10/26 02:14:11;;;;;;;10.75;4.28;;;13.20;99.90;;;;;;4855979;29;20029;-93
2022/10/26 02:16:52;;;;;;;11.32;3.85;;;13.20;99.90;;;;;;4860823;29;20037;-93
2022/10/26 02:19:28;;;;;;;14.98;4.63;;;13.20;99.90;;;;;;4846748;29;20061;-91
2022/10/26 02:22:13;;;;;;;17.65;3.88;;;13.20;99.90;;;;;;4847095;29;20069;-92
2022/10/26 02:24:42;;;;;;;14.43;4.68;;;13.20;99.90;;;;;;4862232;29;20098;-91
2022/10/26 02:27:22;;;;;;;10.25;3.63;;;13.20;99.90;;;;;;4846150;29;20037;-91
2022/10/26 02:29:54;;;;;;;12.70;3.50;;;13.30;99.90;;;;;;4862525;29;20074;-91
2022/10/26 02:32:40;;;;;;;13.05;4.00;;;13.30;99.90;;;;;;4862072;29;20132;-92
2022/10/26 02:35:11;;;;;;;13.43;3.70;;;13.30;99.90;;;;;;4861476;29;20034;-91
2022/10/26 02:37:39;;;;;;;14.80;3.88;;;13.30;99.90;;;;;;4861897;29;20069;-90
2022/10/26 02:40:19;;;;;;;10.57;3.58;;;13.30;99.90;;;;;;4861333;29;20063;-91
2022/10/26 02:42:48;;;;;;;9.03;3.53;;;13.30;99.90;;;;;;4843876;29;20492;-92
2022/10/26 02:45:26;;;;;;;12.98;3.95;;;13.40;99.90;;;;;;4883389;29;20040;-90
2022/10/26 02:47:55;;;;;;;11.73;3.88;;;13.40;99.90;;;;;;4892796;29;20071;-91
2022/10/26 02:50:28;;;;;;;9.77;3.67;;;13.40;99.90;;;;;;4933857;29;20039;-92
2022/10/26 02:53:05;;;;;;;15.23;4.25;;;13.40;99.90;;;;;;4953028;29;20034;-93
2022/10/26 02:55:39;;;;;;;11.52;3.78;;;13.40;99.90;;;;;;4941013;29;20031;-93
2022/10/26 02:58:13;;;;;;;13.05;4.03;;;13.40;99.90;;;;;;4942210;29;20098;-94
2022/10/26 03:00:43;;;;;;;12.57;3.72;;;13.40;99.90;;;;;;4942416;29;20031;-93
2022/10/26 03:03:21;;;;;;;13.95;3.55;;;13.40;99.90;;;;;;4944446;29;20031;-94
2022/10/26 03:05:47;;;;;;;11.05;3.67;;;13.40;99.90;;;;;;4941794;29;20027;-93
2022/10/26 03:08:12;;;;;;;15.75;3.83;;;13.40;99.90;;;;;;4941142;29;20577;-94
2022/10/26 03:10:43;;;;;;;11.32;3.80;;;13.40;99.90;;;;;;4941170;29;20027;-92
2022/10/26 03:13:11;;;;;;;11.43;3.00;;;13.40;99.90;;;;;;4941826;29;20078;-93
2022/10/26 03:15:39;;;;;;;12.30;3.30;;;13.40;99.90;;;;;;4943298;29;20031;-93
2022/10/26 03:18:15;;;;;;;13.82;3.53;;;13.40;99.90;;;;;;4942174;29;20030;-93
2022/10/26 03:20:44;;;;;;;16.08;3.25;;;13.40;99.90;;;;;;4959064;29;20031;-94
2022/10/26 03:23:11;;;;;;;7.32;3.20;;;13.40;99.90;;;;;;4942875;29;20443;-95
2022/10/26 03:25:39;;;;;;;10.13;3.22;;;13.40;99.90;;;;;;4958051;29;20035;-93
2022/10/26 03:28:06;;;;;;;7.88;3.00;;;13.40;99.90;;;;;;4970552;28;20043;-96
2022/10/26 03:30:32;;;;;;;7.25;3.08;;;13.50;99.90;;;;;;4961994;28;20045;-96
2022/10/26 03:33:01;;;;;;;9.20;3.25;;;13.50;99.90;;;;;;4961362;28;20042;-93
2022/10/26 03:35:30;;;;;;;15.18;4.35;;;13.50;99.90;;;;;;4983368;28;20066;-92
2022/10/26 03:37:56;;;;;;;11.32;2.72;;;13.50;99.90;;;;;;4955956;28;20043;-95
2022/10/26 03:40:22;;;;;;;8.90;2.90;;;13.50;99.90;;;;;;4971586;28;20038;-94
2022/10/26 03:42:49;;;;;;;9.93;2.90;;;13.50;99.90;;;;;;4985671;28;20019;-93
2022/10/26 03:45:19;;;;;;;11.50;3.20;;;13.50;99.90;;;;;;4982231;28;20046;-94
2022/10/26 03:48:02;;;;;;;10.40;2.90;;;13.50;99.90;;;;;;4955643;28;20038;-93
2022/10/26 03:50:28;;;;;;;11.38;3.22;;;13.50;99.90;;;;;;4963728;28;20110;-95
2022/10/26 03:52:58;;;;;;;10.05;3.28;;;13.50;99.90;;;;;;4978776;28;20043;-93
2022/10/26 03:55:40;;;;;;;;;;;13.50;99.90;;;;;;4980215;28;20023;-93
2022/10/26 03:58:20;;;;;;;12.73;3.67;;;13.60;99.90;;;;;;4977410;28;20430;-94
2022/10/26 04:00:49;;;;;;;20.48;3.10;;;13.60;99.90;;;;;;4962127;28;20041;-95
2022/10/26 04:03:17;;;;;;;7.78;3.08;;;13.60;99.90;;;;;;4962506;28;20027;-93
2022/10/26 04:05:52;;;;;;;10.50;3.03;;;13.70;99.90;;;;;;4958783;28;20039;-93
2022/10/26 04:08:23;;;;;;;7.90;3.50;;;13.70;99.90;;;;;;4960377;28;20030;-94
2022/10/26 04:10:49;;;;;;;9.32;2.65;;;13.70;99.90;;;;;;4960500;28;20039;-95
2022/10/26 04:13:26;;;;;;;11.45;3.15;;;13.70;99.90;;;;;;4976641;28;20448;-95
2022/10/26 04:16:22;;;;;;;12.75;3.10;;;13.70;99.90;;;;;;4960097;28;20031;-93
2022/10/26 04:18:47;;;;;;;13.93;3.00;;;13.70;99.90;;;;;;4954802;28;20137;-94
2022/10/26 04:21:16;;;;;;;13.82;2.92;;;13.70;99.90;;;;;;4945337;28;20047;-95
2022/10/26 04:23:42;;;;;;;11.95;3.17;;;13.80;99.90;;;;;;4956124;28;20037;-94
2022/10/26 04:26:08;;;;;;;11.00;3.13;;;13.70;99.90;;;;;;4961985;28;20035;-94
2022/10/26 04:28:36;;;;;;;11.45;3.05;;;13.70;99.90;;;;;;4942912;28;20104;-94
2022/10/26 04:31:03;;;;;;;24.20;3.50;;;13.80;99.90;;;;;;4959628;28;20038;-93
2022/10/26 04:33:36;;;;;;;17.95;4.45;;;13.80;99.90;;;;;;4961707;28;20023;-95
2022/10/26 04:36:02;;;;;;;13.15;3.97;;;13.80;99.90;;;;;;4963755;28;20022;-93
2022/10/26 04:38:28;;;;;;;8.43;3.22;;;13.80;99.90;;;;;;4977538;28;20035;-93
2022/10/26 04:40:53;;;;;;;17.23;4.07;;;13.80;99.90;;;;;;4968797;28;20035;-94
2022/10/26 04:43:24;;;;;;;12.45;3.30;;;13.80;99.90;;;;;;4959174;28;20093;-94
2022/10/26 04:45:54;;;;;;;13.52;3.50;;;13.80;99.90;;;;;;4957400;28;20189;-95
2022/10/26 04:48:19;;;;;;;9.57;3.78;;;13.90;99.90;;;;;;4958747;28;20035;-93
2022/10/26 04:50:46;;;;;;;14.48;3.35;;;13.90;99.90;;;;;;4960764;28;20494;-95
2022/10/26 04:53:12;;;;;;;15.95;3.53;;;13.90;99.90;;;;;;4962714;28;20027;-96
2022/10/26 04:55:37;;;;;;;12.68;3.40;;;13.90;99.90;;;;;;4960238;28;20042;-94
2022/10/26 04:58:07;;;;;;;10.63;3.50;;;13.90;99.90;;;;;;4961154;28;20122;-95
2022/10/26 05:00:40;;;;;;;9.60;2.83;;;13.90;99.90;;;;;;4944712;28;20050;-95
2022/10/26 05:03:07;;;;;;;11.18;3.17;;;13.80;99.90;;;;;;4961858;28;20023;-95
2022/10/26 05:05:34;;;;;;;7.80;2.55;;;13.90;99.90;;;;;;4946093;28;20031;-94
2022/10/26 05:08:00;;;;;;;10.70;3.95;;;13.90;99.90;;;;;;4959306;28;20575;-94
2022/10/26 05:10:29;;;;;;;12.55;2.95;;;13.90;99.90;;;;;;4959986;28;20059;-94
2022/10/26 05:12:58;;;;;;;10.82;2.85;;;13.90;99.90;;;;;;4960962;28;20027;-94
2022/10/26 05:15:23;;;;;;;9.50;3.20;;;14.00;99.90;;;;;;4945570;28;20089;-95
2022/10/26 05:18:14;;;;;;;9.25;3.22;;;14.00;99.90;;;;;;4960476;28;20121;-95
2022/10/26 05:20:44;;;;;;;13.35;3.08;;;14.00;99.90;;;;;;4977136;28;20035;-94
2022/10/26 05:23:11;;;;;;;7.82;2.58;;;14.10;99.90;;;;;;4960487;28;20054;-93
2022/10/26 05:28:26;;;;;;;5.40;2.45;;;14.10;99.90;;;;;;4977172;28;20054;-94
2022/10/26 05:30:54;;;;;;;8.82;2.20;;;14.10;99.90;;;;;;4960942;28;20035;-94
2022/10/26 05:33:25;;;;;;;3.88;1.90;;;14.10;99.90;;;;;;4963959;28;20451;-94
2022/10/26 05:35:53;;;;;;;10.77;2.65;;;14.10;99.90;;;;;;4980378;28;20495;-93
2022/10/26 05:38:23;;;;;;;10.30;2.90;;;14.10;99.90;;;;;;4980432;28;20034;-93
2022/10/26 05:40:50;;;;;;;12.63;2.25;;;14.10;99.90;;;;;;4961687;28;20039;-95
2022/10/26 05:43:17;;;;;;;8.43;2.35;;;14.10;99.90;;;;;;4980283;28;20054;-93
2022/10/26 05:45:43;;;;;;;8.48;2.08;;;14.10;99.90;;;;;;4964950;28;20034;-94
2022/10/26 05:48:09;;;;;;;5.85;1.80;;;14.10;99.90;;;;;;4962998;28;20044;-95
2022/10/26 05:50:35;;;;;;;11.05;2.08;;;14.10;99.90;;;;;;4961171;28;20043;-94
2022/10/26 05:53:07;;;;;;;2.55;1.50;;;14.10;99.90;;;;;;4963838;28;20027;-94
2022/10/26 05:55:33;;;;;;;7.65;2.38;;;14.00;99.90;;;;;;4963483;28;20046;-94
2022/10/26 05:57:59;;;;;;;10.63;1.60;;;14.00;99.90;;;;;;4961026;28;20074;-94
2022/10/26 06:00:35;;;;;;;10.20;1.80;;;14.00;99.90;;;;;;4961997;28;20070;-94
2022/10/26 06:03:14;;;;;;;6.63;1.63;;;14.00;99.90;;;;;;4961487;28;20026;-95
2022/10/26 06:06:03;;;;;;;5.32;1.55;;;14.00;99.90;;;;;;4961597;28;20023;-94
2022/10/26 06:08:34;;;;;;;3.92;1.75;;;14.00;99.90;;;;;;4974695;28;20031;-94
2022/10/26 06:11:02;;;;;;;6.95;1.50;;;13.90;99.90;;;;;;4961238;28;20053;-93
2022/10/26 06:13:28;;;;;;;7.47;1.50;;;14.00;99.90;;;;;;4962146;28;20070;-93
2022/10/26 06:16:39;;;;;;;4.75;1.35;;;14.00;99.90;;;;;;4962577;28;20045;-93
2022/10/26 06:19:11;;;;;;;5.93;1.27;;;14.00;99.90;;;;;;4965525;28;20043;-96
2022/10/26 06:21:58;;;;;;;10.10;1.80;;;13.90;99.90;;;;;;4987642;28;20031;-95
2022/10/26 06:24:40;;;;;;;8.30;1.95;;;14.00;99.90;;;;;;4976617;28;20018;-90
2022/10/26 06:27:27;;;;;;;5.18;1.48;;;14.00;99.90;;;;;;4982335;28;20039;-88
2022/10/26 06:30:02;;;;;;;9.40;1.77;;;14.00;99.90;;;;;;4981142;28;20075;-94
2022/10/26 06:32:30;;;;;;;8.48;1.90;;;13.90;99.90;;;;;;4963459;28;20106;-93
2022/10/26 06:35:13;;;;;;;7.80;1.85;;;13.90;99.90;;;;;;4958161;28;20023;-93
2022/10/26 06:37:43;;;;;;;9.02;2.05;;;13.90;99.90;;;;;;4945825;28;20035;-93
2022/10/26 06:40:14;;;;;;;10.40;1.73;;;13.90;99.90;;;;;;4977494;28;20035;-94
2022/10/26 06:42:40;;;;;;;7.60;1.70;;;13.90;99.90;;;;;;4960823;28;20038;-93
2022/10/26 06:45:18;;;;;;;10.30;1.52;;;13.90;99.90;;;;;;4962185;28;20039;-93
2022/10/26 06:48:09;;;;;;;8.48;1.65;;;13.90;99.90;;;;;;4979120;28;20106;-94
2022/10/26 06:50:55;;;;;;;8.63;2.35;;;13.90;99.90;;;;;;4960640;28;20019;-94
2022/10/26 06:53:49;;;;;;;11.80;1.77;;;13.80;99.90;;;;;;4961725;28;20033;-93
2022/10/26 06:56:16;;;;;;;7.93;1.50;;;13.80;99.90;;;;;;4958655;28;20053;-92
2022/10/26 06:58:45;;;;;;;11.88;1.67;;;13.70;99.90;;;;;;4948869;28;20366;-91
2022/10/26 07:01:18;;;;;;;9.95;1.95;;;13.70;99.90;;;;;;4949479;28;20023;-92
2022/10/26 07:03:44;;;;;;;6.03;1.40;;;13.70;99.90;;;;;;4955707;28;20030;-93
2022/10/26 07:06:13;;;;;;;6.63;1.48;;;13.70;99.90;;;;;;4957588;28;20023;-93
2022/10/26 07:08:39;;;;;;;10.15;2.15;;;13.70;99.90;;;;;;4959512;28;20055;-93
2022/10/26 07:11:11;;;;;;;11.80;1.83;;;13.60;99.90;;;;;;4976669;28;20045;-93
2022/10/26 07:13:52;;;;;;;7.22;1.80;;;13.60;99.90;;;;;;4959320;28;20062;-92
2022/10/26 07:16:21;;;;;;;14.85;1.90;;;13.60;99.90;;;;;;4973004;28;20022;-94
2022/10/26 07:18:51;;;;;;;9.55;1.98;;;13.60;99.90;;;;;;4975440;28;20054;-93
2022/10/26 07:21:18;;;;;;;7.43;1.65;;;13.60;99.90;;;;;;4951893;28;20039;-93
2022/10/26 07:24:09;;;;;;;19.77;2.47;;;13.60;99.90;;;;;;4957502;28;20033;-94
2022/10/26 07:27:16;;;;;;;9.45;1.52;;;13.60;99.90;;;;;;4958505;28;20023;-93
2022/10/26 07:29:47;;;;;;;9.38;1.85;;;13.70;99.90;;;;;;4952065;29;20039;-94
2022/10/26 07:32:39;;;;;;;9.88;1.60;;;13.70;99.90;;;;;;4956410;29;20043;-95
2022/10/26 07:35:08;;;;;;;9.40;1.98;;;13.70;99.90;;;;;;4963123;28;20035;-93
2022/10/26 07:37:34;;;;;;;11.88;1.90;;;13.70;99.90;;;;;;4961031;28;20038;-95
2022/10/26 07:40:02;;;;;;;13.15;1.83;;;13.80;99.90;;;;;;4960869;28;20090;-94
2022/10/26 07:42:27;;;;;;;9.82;1.45;;;13.80;99.90;;;;;;4954231;28;20028;-94
2022/10/26 07:44:54;;;;;;;10.57;1.63;;;13.80;99.90;;;;;;4943330;29;20023;-94
2022/10/26 07:47:20;;;;;;;10.13;2.03;;;13.80;99.90;;;;;;4943415;29;20035;-94
2022/10/26 07:49:49;;;;;;;9.63;1.60;;;13.90;99.90;;;;;;4943513;29;20020;-95
2022/10/26 07:52:19;;;;;;;8.95;1.98;;;13.90;99.90;;;;;;4977632;28;20067;-93
2022/10/26 07:54:48;;;;;;;14.50;1.95;;;13.90;99.90;;;;;;4955753;28;20035;-95
2022/10/26 07:57:16;;;;;;;8.23;1.60;;;13.90;99.90;;;;;;4932746;29;20039;-95
2022/10/26 07:59:43;;;;;;;10.65;1.63;;;13.90;99.90;;;;;;4961740;29;20457;-94
2022/10/26 08:02:18;;;;;;;13.02;1.63;;;14.00;99.90;;;;;;4946224;29;20039;-95
2022/10/26 08:04:46;;;;;;;11.48;1.77;;;14.00;99.90;;;;;;4949923;29;20024;-96
2022/10/26 08:07:14;;;;;;;12.00;1.98;;;14.10;99.90;;;;;;4933341;29;20088;-94
2022/10/26 08:09:56;;;;;;;19.63;2.72;;;14.10;99.90;;;;;;4933658;29;20019;-96
2022/10/26 08:12:27;;;;;;;12.65;2.03;;;14.10;99.90;;;;;;4955085;29;20028;-94
2022/10/26 08:15:03;;;;;;;11.88;1.80;;;14.20;99.90;;;;;;4937747;29;20032;-96
2022/10/26 08:17:42;;;;;;;12.15;1.48;;;14.20;99.90;;;;;;4940161;29;20175;-96
2022/10/26 08:20:08;;;;;;;19.73;4.05;;;14.20;99.90;;;;;;4933666;29;20100;-95
2022/10/26 08:22:37;;;;;;;6.72;1.50;;;14.10;99.90;;;;;;4938252;29;20031;-95
2022/10/26 08:25:04;;;;;;;12.45;2.05;;;14.20;99.90;;;;;;4950486;29;20035;-96
2022/10/26 08:27:33;;;;;;;9.80;1.80;;;14.20;99.90;;;;;;4967038;28;20020;-95
2022/10/26 08:29:58;;;;;;;11.85;1.67;;;14.20;99.90;;;;;;4969300;28;20043;-96
2022/10/26 08:32:37;;;;;;;11.77;1.90;;;14.20;99.90;;;;;;4949129;29;20032;-96
2022/10/26 08:35:07;;;;;;;9.23;1.67;;;14.20;99.90;;;;;;4955778;28;20035;-93
2022/10/26 08:37:42;;;;;;;9.57;1.50;;;14.20;99.90;;;;;;4937915;29;20050;-96
2022/10/26 08:40:15;;;;;;;12.27;1.95;;;14.20;99.90;;;;;;4947252;29;20032;-96
2022/10/26 08:42:49;;;;;;;15.32;2.70;;;14.20;99.90;;;;;;4948440;29;20031;-96
2022/10/26 08:45:52;;;;;;;11.95;1.52;;;14.20;99.90;;;;;;4949242;29;20027;-96
2022/10/26 08:48:30;;;;;;;14.25;2.45;;;14.20;99.90;;;;;;4955559;29;20107;-95
2022/10/26 08:51:20;;;;;;;14.13;1.85;;;14.20;99.90;;;;;;4939344;29;20027;-95
2022/10/26 08:56:59;;;;;;;24.52;2.78;;;14.20;99.90;;;;;;4966697;29;20058;-94
2022/10/26 08:59:54;;;;;;;13.50;1.45;;;14.20;99.90;;;;;;4965619;29;20099;-95
2022/10/26 09:02:23;;;;;;;9.43;1.65;;;14.30;99.90;;;;;;4948897;29;20164;-96
2022/10/26 09:04:57;;;;;;;12.65;1.48;;;14.40;99.90;;;;;;4932746;29;20031;-96
2022/10/26 09:07:52;;;;;;;8.23;2.00;;;14.40;99.90;;;;;;4945598;29;20039;-96
2022/10/26 09:10:49;;;;;;;9.77;1.30;;;14.50;99.90;;;;;;4953970;29;20031;-95
2022/10/26 09:13:34;;;;;;;11.68;1.55;;;14.60;99.90;;;;;;4955408;29;20130;-96
2022/10/26 09:16:32;;;;;;;10.20;1.50;;;14.70;99.90;;;;;;4949729;29;20035;-95
2022/10/26 09:19:22;;;;;;;7.63;1.30;;;14.80;99.90;;;;;;4955892;29;20053;-95
2022/10/26 09:22:30;;;;;;;10.82;1.30;;;14.80;99.90;;;;;;4969523;28;20038;-96
2022/10/26 09:25:01;;;;;;;15.27;2.70;;;14.90;99.90;;;;;;4969819;29;20043;-95
2022/10/26 09:27:52;;;;;;;9.73;1.58;;;14.90;99.90;;;;;;4962473;29;20023;-95
2022/10/26 09:30:20;;;;;;;11.38;2.05;;;14.90;99.90;;;;;;4972979;29;20047;-93
2022/10/26 09:33:09;;;;;;;7.22;1.73;;;14.90;99.90;;;;;;4960001;28;20062;-93
2022/10/26 09:35:43;;;;;;;6.55;2.17;;;14.90;99.90;;;;;;4961616;29;20026;-96
2022/10/26 09:38:21;;;;;;;13.15;1.90;;;14.80;99.90;;;;;;4958783;29;20043;-95
2022/10/26 09:41:08;;;;;;;11.90;1.70;;;14.80;99.90;;;;;;4973669;29;20038;-95
2022/10/26 09:43:49;;;;;;;11.05;1.58;;;14.80;99.90;;;;;;4960580;28;20015;-96
2022/10/26 09:46:33;;;;;;;7.25;1.13;;;14.90;99.90;;;;;;4958848;29;20098;-96
2022/10/26 09:49:05;;;;;;;17.77;1.90;;;14.80;99.90;;;;;;4955217;29;20030;-95
2022/10/26 09:51:34;;;;;;;6.45;1.42;;;14.90;99.90;;;;;;4958870;29;20035;-96
2022/10/26 09:54:01;;;;;;;10.52;1.67;;;14.90;99.90;;;;;;4971961;29;20035;-95
2022/10/26 09:56:29;;;;;;;7.55;1.52;;;14.90;99.90;;;;;;4960181;28;20022;-96
2022/10/26 09:59:04;;;;;;;7.82;1.45;;;15.00;99.90;;;;;;4979995;28;20035;-95
2022/10/26 10:01:33;;;;;;;5.75;0.90;;;15.10;99.90;;;;;;5000613;28;20027;-94
2022/10/26 10:04:25;;;;;;;4.78;1.00;;;15.40;99.90;;;;;;4962961;28;20551;-95
2022/10/26 10:07:12;;;;;;;13.23;2.05;;;15.60;99.90;;;;;;4979331;28;20570;-96
2022/10/26 10:09:41;;;;;;;6.30;1.13;;;15.90;99.90;;;;;;4979238;28;20022;-95
2022/10/26 10:12:18;;;;;;;5.20;1.25;;;16.30;99.90;;;;;;4980637;28;20102;-96
2022/10/26 10:14:58;;;;;;;10.25;1.30;;;16.60;99.90;;;;;;4979414;28;20023;-95
2022/10/26 10:17:24;;;;;;;9.43;2.60;;;16.60;99.90;;;;;;4982905;28;20031;-95
2022/10/26 10:19:58;;;;;;;7.13;1.15;;;16.70;99.90;;;;;;4981560;28;20516;-95
2022/10/26 10:22:27;;;;;;;7.15;1.25;;;16.70;99.90;;;;;;4976964;28;20026;-96
2022/10/26 10:24:58;;;;;;;9.18;1.70;;;16.70;99.90;;;;;;4995243;28;20007;-96
2022/10/26 10:27:33;;;;;;;8.30;1.20;;;16.70;99.90;;;;;;4995110;28;20090;-94
2022/10/26 10:30:26;;;;;;;5.78;1.33;;;16.70;99.90;;;;;;4977091;28;20111;-95
2022/10/26 10:33:12;;;;;;;6.03;1.75;;;16.90;99.90;;;;;;4964819;28;20035;-95
2022/10/26 10:35:50;;;;;;;8.65;1.23;;;17.30;99.90;;;;;;4978468;28;20022;-96
2022/10/26 10:38:19;;;;;;;4.57;1.02;;;17.60;99.90;;;;;;4955025;28;20046;-96
2022/10/26 10:40:58;;;;;;;9.07;1.45;;;17.50;99.90;;;;;;4977930;28;20107;-95
2022/10/26 10:43:26;;;;;;;5.97;0.90;;;17.40;99.90;;;;;;4995061;28;20031;-96
2022/10/26 10:45:56;;;;;;;5.63;1.33;;;17.20;99.90;;;;;;4976263;28;20086;-95
2022/10/26 10:48:27;;;;;;;11.68;1.52;;;17.00;99.90;;;;;;4977755;28;20053;-96
2022/10/26 10:50:59;;;;;;;6.78;1.42;;;16.80;99.90;;;;;;4976272;28;20038;-96
2022/10/26 10:53:31;;;;;;;10.10;1.50;;;16.60;99.90;;;;;;4978317;28;20011;-96
2022/10/26 10:56:22;;;;;;;7.53;1.40;;;16.40;99.90;;;;;;4994616;28;20030;-93
2022/10/26 10:59:22;;;;;;;5.25;1.02;;;16.30;99.90;;;;;;4992040;28;20022;-96
2022/10/26 11:01:56;;;;;;;6.85;0.90;;;16.30;99.90;;;;;;4979612;28;20027;-95
2022/10/26 11:05:04;;;;;;;8.88;1.38;;;16.40;99.90;;;;;;4990995;28;20069;-94
2022/10/26 11:07:46;;;;;;;10.30;1.63;;;16.40;99.90;;;;;;4976634;28;20047;-95
2022/10/26 11:10:16;;;;;;;9.35;1.30;;;16.30;99.90;;;;;;4976702;28;20042;-95
2022/10/26 11:13:17;;;;;;;8.50;1.20;;;16.40;99.90;;;;;;4978751;28;20065;-92
2022/10/26 11:15:46;;;;;;;4.22;1.20;;;16.50;99.90;;;;;;4976695;28;20015;-95
2022/10/26 11:18:43;;;;;;;7.83;1.13;;;16.60;99.90;;;;;;4970726;28;20066;-96
2022/10/26 11:21:22;;;;;;;9.90;1.35;;;16.80;99.90;;;;;;4976873;28;20047;-94
2022/10/26 11:24:10;;;;;;;5.95;1.00;;;17.10;99.90;;;;;;4969343;28;20023;-94
2022/10/26 11:26:45;;;;;;;7.97;1.20;;;17.50;99.90;;;;;;4977139;28;20022;-95
2022/10/26 11:29:32;;;;;;;5.07;1.13;;;17.90;99.90;;;;;;4958302;29;20055;-93
2022/10/26 11:32:28;;;;;;;6.47;1.02;;;18.30;99.90;;;;;;4983406;28;20019;-95
2022/10/26 11:35:17;;;;;;;6.90;1.63;;;18.60;98.90;;;;;;4977991;28;20085;-94
2022/10/26 11:38:18;;;;;;;6.20;1.23;;;18.80;96.30;;;;;;4970596;28;20095;-96
2022/10/26 11:40:45;;;;;;;7.00;1.52;;;18.80;94.30;;;;;;4951145;29;20043;-95
2022/10/26 11:43:39;;;;;;;6.93;0.90;;;18.60;93.10;;;;;;4951963;29;20019;-96
2022/10/26 11:46:24;;;;;;;5.72;1.30;;;18.60;93.00;;;;;;4952972;29;20131;-93
2022/10/26 11:49:22;;;;;;;5.05;1.02;;;18.70;92.60;;;;;;4976552;29;20065;-94
2022/10/26 11:51:54;;;;;;;8.70;1.38;;;18.90;92.30;;;;;;4952181;28;20125;-96
2022/10/26 11:54:47;;;;;;;10.77;1.08;;;18.90;91.90;;;;;;4970742;28;20018;-93
2022/10/26 11:57:14;;;;;;;7.25;1.20;;;18.90;90.60;;;;;;4985917;28;20053;-94
2022/10/26 11:59:49;;;;;;;7.28;1.25;;;19.10;90.50;;;;;;4971381;28;20436;-92
2022/10/26 12:02:20;;;;;;;6.35;1.23;;;19.10;88.60;;;;;;4984564;28;20018;-95
2022/10/26 12:04:49;;;;;;;;;;;19.20;88.60;;;;;;4984044;28;20504;-96
2022/10/26 12:07:31;;;;;;;8.88;1.50;;;19.40;87.70;;;;;;4958074;29;19910;-96
2022/10/26 12:09:59;;;;;;;7.55;1.60;;;19.50;87.10;;;;;;4967676;29;20046;-95
2022/10/26 12:12:36;;;;;;;5.90;1.40;;;19.70;85.40;;;;;;4947736;28;20035;-94
2022/10/26 12:15:16;;;;;;;10.52;1.88;;;19.60;83.60;;;;;;4929944;29;20031;-94
2022/10/26 12:18:13;;;;;;;9.00;1.27;;;19.60;84.30;;;;;;4947226;29;20038;-96
2022/10/26 12:20:45;;;;;;;7.65;1.90;;;19.80;83.70;;;;;;4948489;29;20043;-96
2022/10/26 12:23:14;;;;;;;8.45;1.48;;;19.90;83.40;;;;;;4957583;29;20062;-96
2022/10/26 12:25:40;;;;;;;5.38;1.35;;;20.00;82.70;;;;;;4964636;28;20027;-95
2022/10/26 12:28:38;;;;;;;5.18;1.08;;;20.20;82.20;;;;;;4947691;29;20054;-95
2022/10/26 12:31:35;;;;;;;8.10;1.70;;;20.30;81.50;;;;;;4946987;29;20468;-95
2022/10/26 12:34:02;;;;;;;8.45;1.90;;;20.40;80.10;;;;;;4947064;29;20099;-94
2022/10/26 12:36:48;;;;;;;8.77;2.20;;;20.40;79.00;;;;;;4950785;29;20027;-95
2022/10/26 12:39:35;;;;;;;11.35;1.60;;;20.60;79.20;;;;;;4952004;28;20043;-96
2022/10/26 12:42:27;;;;;;;10.80;1.42;;;20.80;78.70;;;;;;4952280;29;20067;-95
2022/10/26 12:44:53;;;;;;;9.40;1.55;;;21.00;77.10;;;;;;4950770;29;20038;-96
2022/10/26 12:47:27;;;;;;;5.72;1.42;;;21.00;76.30;;;;;;4967115;29;20039;-94
2022/10/26 12:50:05;;;;;;;9.90;1.77;;;21.10;76.30;;;;;;4947758;29;20023;-96
2022/10/26 12:52:36;;;;;;;7.22;1.30;;;21.10;75.70;;;;;;4951052;29;20027;-96
2022/10/26 12:55:14;;;;;;;7.72;1.45;;;21.10;75.60;;;;;;4948610;29;20040;-94
2022/10/26 12:57:45;;;;;;;8.20;1.40;;;21.10;75.50;;;;;;4949755;29;20492;-95
2022/10/26 13:00:21;;;;;;;12.23;2.05;;;20.80;75.50;;;;;;4954172;28;20024;-96
2022/10/26 13:03:11;;;;;;;10.05;1.45;;;20.60;76.60;;;;;;4965680;28;20030;-96
2022/10/26 13:06:03;;;;;;;9.75;1.50;;;20.50;76.80;;;;;;4982970;28;20023;-95
2022/10/26 13:09:06;;;;;;;5.88;1.45;;;20.40;76.80;;;;;;4967463;28;20062;-96
2022/10/26 13:11:37;;;;;;;14.10;2.03;;;20.20;76.70;;;;;;4959575;28;20039;-94
2022/10/26 13:14:06;;;;;;;7.45;1.40;;;19.90;76.50;;;;;;4967145;28;20160;-95
2022/10/26 13:16:32;;;;;;;13.77;1.80;;;19.50;77.10;;;;;;4967360;28;20023;-94
2022/10/26 13:18:59;;;;;;;13.65;2.03;;;19.20;78.10;;;;;;4975007;28;20468;-90
2022/10/26 13:21:26;;;;;;;9.05;1.83;;;18.90;78.70;;;;;;4995920;28;20086;-95
2022/10/26 13:23:56;;;;;;;8.57;1.80;;;18.80;79.90;;;;;;4972834;28;20030;-92
2022/10/26 13:26:24;;;;;;;18.02;1.90;;;18.80;80.40;;;;;;4966503;28;20027;-95
2022/10/26 13:28:56;;;;;;;8.18;1.60;;;18.70;80.50;;;;;;4975138;29;20078;-96
2022/10/26 13:31:30;;;;;;;10.40;2.13;;;18.60;80.50;;;;;;4976476;28;20012;-91
2022/10/26 13:34:14;;;;;;;16.70;2.17;;;18.40;81.20;;;;;;4978077;28;20066;-89